createdAt,value
2022-07-31T00:00:04.032Z,82.90
2022-07-31T00:01:04.020Z,82.40
2022-07-31T00:02:04.088Z,82.60
2022-07-31T00:03:04.021Z,82.30
2022-07-31T00:04:03.975Z,82.30
2022-07-31T00:05:03.966Z,82.50
2022-07-31T00:06:03.970Z,82.80
2022-07-31T00:07:04.364Z,82.84
2022-07-31T00:08:03.957Z,82.40
2022-07-31T00:09:03.927Z,83.00
2022-07-31T00:10:03.903Z,83.00
2022-07-31T00:11:03.912Z,82.94
2022-07-31T00:12:03.885Z,81.93
2022-07-31T00:13:03.874Z,82.34
2022-07-31T00:14:03.923Z,82.24
2022-07-31T00:15:03.846Z,82.94
2022-07-31T00:16:03.853Z,82.84
2022-07-31T00:17:04.206Z,82.34
2022-07-31T00:18:03.813Z,82.94
2022-07-31T00:19:03.817Z,83.25
2022-07-31T00:20:03.812Z,82.44
2022-07-31T00:21:03.802Z,83.25
2022-07-31T00:22:03.770Z,82.64
2022-07-31T00:23:03.769Z,83.08
2022-07-31T00:24:03.755Z,83.48
2022-07-31T00:25:03.737Z,84.25
2022-07-31T00:26:03.774Z,84.45
2022-07-31T00:27:04.011Z,83.99
2022-07-31T00:28:03.701Z,84.25
2022-07-31T00:29:03.694Z,84.19
2022-07-31T00:30:03.690Z,84.19
2022-07-31T00:31:03.680Z,84.19
2022-07-31T00:32:03.676Z,84.09
2022-07-31T00:33:03.647Z,83.99
2022-07-31T00:34:03.639Z,83.99
2022-07-31T00:35:03.641Z,83.89
2022-07-31T00:36:03.628Z,84.49
2022-07-31T00:37:03.926Z,84.39
2022-07-31T00:39:04.576Z,84.69
2022-07-31T00:40:03.570Z,84.19
2022-07-31T00:41:03.577Z,84.69
2022-07-31T00:42:03.558Z,85.00
2022-07-31T00:43:03.573Z,84.69
2022-07-31T00:44:03.523Z,84.59
2022-07-31T00:45:03.511Z,84.49
2022-07-31T00:46:03.517Z,84.59
2022-07-31T00:47:03.851Z,84.43
2022-07-31T00:48:03.480Z,84.59
2022-07-31T00:49:03.578Z,83.79
2022-07-31T00:50:03.456Z,84.19
2022-07-31T00:51:03.463Z,83.39
2022-07-31T00:52:03.443Z,83.89
2022-07-31T00:53:03.451Z,84.53
2022-07-31T00:54:03.412Z,84.29
2022-07-31T00:55:03.423Z,84.80
2022-07-31T00:56:03.407Z,84.80
2022-07-31T00:57:03.684Z,84.80
2022-07-31T00:58:03.373Z,85.00
2022-07-31T00:59:03.348Z,84.69
2022-07-31T01:00:03.341Z,84.59
2022-07-31T01:01:03.485Z,84.43
2022-07-31T01:02:03.317Z,85.03
2022-07-31T01:03:03.308Z,85.03
2022-07-31T01:04:03.296Z,84.83
2022-07-31T01:05:03.278Z,85.14
2022-07-31T01:06:03.285Z,84.74
2022-07-31T01:07:03.626Z,84.63
2022-07-31T01:08:03.255Z,84.94
2022-07-31T01:09:03.248Z,84.74
2022-07-31T01:10:03.220Z,85.34
2022-07-31T01:11:03.227Z,85.34
2022-07-31T01:12:03.211Z,85.44
2022-07-31T01:13:03.190Z,85.24
2022-07-31T01:14:03.198Z,85.34
2022-07-31T01:15:03.170Z,85.14
2022-07-31T01:16:03.188Z,85.54
2022-07-31T01:17:03.427Z,85.64
2022-07-31T01:18:03.135Z,85.34
2022-07-31T01:19:03.123Z,85.34
2022-07-31T01:20:03.141Z,85.34
2022-07-31T01:21:03.117Z,85.58
2022-07-31T01:22:03.085Z,85.14
2022-07-31T01:23:03.079Z,85.98
2022-07-31T01:24:03.066Z,85.28
2022-07-31T01:25:03.067Z,85.34
2022-07-31T01:26:03.121Z,86.04
2022-07-31T01:27:03.324Z,86.69
2022-07-31T01:28:03.024Z,85.98
2022-07-31T01:29:03.008Z,85.98
2022-07-31T01:30:02.995Z,85.48
2022-07-31T01:31:25.594Z,84.67
2022-07-31T01:32:04.013Z,85.48
2022-07-31T01:33:02.974Z,84.97
2022-07-31T01:34:02.958Z,85.08
2022-07-31T01:35:02.943Z,85.38
2022-07-31T01:36:02.943Z,85.17
2022-07-31T01:37:03.271Z,84.77
2022-07-31T01:38:02.964Z,83.97
2022-07-31T01:39:02.889Z,84.17
2022-07-31T01:40:02.883Z,84.88
2022-07-31T01:41:02.888Z,84.88
2022-07-31T01:42:03.083Z,84.88
2022-07-31T01:43:02.856Z,84.57
2022-07-31T01:44:02.910Z,84.97
2022-07-31T01:45:02.820Z,84.77
2022-07-31T01:46:02.831Z,85.28
2022-07-31T01:47:03.073Z,84.77
2022-07-31T01:48:02.789Z,84.71
2022-07-31T01:49:02.880Z,84.71
2022-07-31T01:50:02.835Z,84.57
2022-07-31T01:51:02.783Z,84.51
2022-07-31T01:52:04.834Z,85.11
2022-07-31T01:53:02.729Z,85.11
2022-07-31T01:54:02.723Z,85.11
2022-07-31T01:55:02.736Z,85.02
2022-07-31T01:56:04.351Z,84.91
2022-07-31T01:57:02.739Z,85.11
2022-07-31T01:58:02.676Z,84.95
2022-07-31T01:59:02.664Z,84.91
2022-07-31T02:00:02.655Z,85.25
2022-07-31T02:01:02.714Z,85.25
2022-07-31T02:02:02.892Z,85.36
2022-07-31T02:03:09.884Z,84.55
2022-07-31T02:04:03.606Z,84.55
2022-07-31T02:05:02.603Z,84.25
2022-07-31T02:06:03.321Z,84.55
2022-07-31T02:07:02.570Z,84.75
2022-07-31T02:08:02.562Z,84.95
2022-07-31T02:09:02.566Z,84.75
2022-07-31T02:10:02.541Z,85.16
2022-07-31T02:11:02.542Z,84.75
2022-07-31T02:12:02.525Z,84.25
2022-07-31T02:13:02.504Z,84.45
2022-07-31T02:14:02.502Z,84.45
2022-07-31T02:15:02.521Z,83.14
2022-07-31T02:16:02.489Z,83.34
2022-07-31T02:17:02.459Z,83.44
2022-07-31T02:18:02.446Z,82.64
2022-07-31T02:19:02.435Z,82.84
2022-07-31T02:20:02.426Z,83.54
2022-07-31T02:21:02.421Z,84.05
2022-07-31T02:22:02.685Z,84.45
2022-07-31T02:23:02.393Z,84.45
2022-07-31T02:24:02.374Z,83.54
2022-07-31T02:25:02.369Z,83.24
2022-07-31T02:26:02.365Z,83.54
2022-07-31T02:27:02.339Z,84.15
2022-07-31T02:28:02.340Z,83.95
2022-07-31T02:29:02.343Z,84.25
2022-07-31T02:30:02.307Z,84.65
2022-07-31T02:31:02.306Z,84.85
2022-07-31T02:32:03.485Z,84.55
2022-07-31T02:33:02.270Z,84.65
2022-07-31T02:34:02.309Z,84.55
2022-07-31T02:35:02.245Z,84.55
2022-07-31T02:36:02.259Z,84.59
2022-07-31T02:37:02.225Z,85.05
2022-07-31T02:38:02.217Z,85.30
2022-07-31T02:39:02.203Z,85.30
2022-07-31T02:40:02.239Z,85.16
2022-07-31T02:41:02.201Z,84.69
2022-07-31T02:42:02.584Z,85.19
2022-07-31T02:43:02.156Z,84.79
2022-07-31T02:44:02.142Z,84.99
2022-07-31T02:45:02.133Z,85.10
2022-07-31T02:46:02.178Z,85.40
2022-07-31T02:47:02.111Z,85.70
2022-07-31T02:48:02.099Z,85.60
2022-07-31T02:49:02.129Z,85.14
2022-07-31T02:50:02.096Z,84.99
2022-07-31T02:51:02.073Z,84.79
2022-07-31T02:52:02.435Z,84.79
2022-07-31T02:53:02.045Z,84.79
2022-07-31T02:54:02.031Z,84.83
2022-07-31T02:55:02.024Z,84.73
2022-07-31T02:56:02.028Z,85.03
2022-07-31T02:57:01.995Z,84.63
2022-07-31T02:58:02.029Z,84.83
2022-07-31T02:59:01.985Z,85.14
2022-07-31T03:00:01.991Z,85.03
2022-07-31T03:01:02.096Z,85.34
2022-07-31T03:02:02.412Z,85.14
2022-07-31T03:03:01.930Z,84.93
2022-07-31T03:04:01.979Z,85.84
2022-07-31T03:05:01.904Z,85.34
2022-07-31T03:06:01.906Z,85.03
2022-07-31T03:07:01.885Z,84.87
2022-07-31T03:08:01.879Z,85.14
2022-07-31T03:09:01.864Z,85.14
2022-07-31T03:10:01.886Z,84.77
2022-07-31T03:11:01.865Z,84.83
2022-07-31T03:12:04.103Z,84.17
2022-07-31T03:13:01.809Z,84.67
2022-07-31T03:14:01.806Z,85.17
2022-07-31T03:15:01.800Z,85.28
2022-07-31T03:16:01.828Z,85.28
2022-07-31T03:17:01.762Z,84.97
2022-07-31T03:18:01.764Z,84.67
2022-07-31T03:19:02.760Z,84.87
2022-07-31T03:20:01.733Z,85.48
2022-07-31T03:21:01.752Z,85.14
2022-07-31T03:22:02.146Z,85.14
2022-07-31T03:23:01.699Z,85.34
2022-07-31T03:24:01.694Z,85.64
2022-07-31T03:25:01.678Z,85.44
2022-07-31T03:26:01.682Z,85.54
2022-07-31T03:27:01.654Z,85.64
2022-07-31T03:28:01.642Z,85.54
2022-07-31T03:29:01.675Z,86.35
2022-07-31T03:30:01.618Z,86.65
2022-07-31T03:31:01.626Z,86.15
2022-07-31T03:32:01.971Z,86.39
2022-07-31T03:33:01.599Z,86.69
2022-07-31T03:34:01.571Z,86.49
2022-07-31T03:35:01.563Z,86.39
2022-07-31T03:36:01.648Z,86.45
2022-07-31T03:37:01.543Z,86.35
2022-07-31T03:38:01.539Z,86.45
2022-07-31T03:39:02.513Z,85.78
2022-07-31T03:40:01.499Z,85.38
2022-07-31T03:41:01.504Z,85.24
2022-07-31T03:42:01.834Z,85.38
2022-07-31T03:43:01.476Z,85.08
2022-07-31T03:44:01.462Z,85.38
2022-07-31T03:45:01.449Z,86.39
2022-07-31T03:46:01.454Z,86.65
2022-07-31T03:47:01.427Z,86.65
2022-07-31T03:48:01.420Z,86.65
2022-07-31T03:49:01.517Z,86.55
2022-07-31T03:50:01.396Z,86.39
2022-07-31T03:51:01.400Z,85.14
2022-07-31T03:52:01.815Z,84.97
2022-07-31T03:53:01.349Z,84.67
2022-07-31T03:54:01.349Z,85.48
2022-07-31T03:55:01.367Z,85.48
2022-07-31T03:56:01.358Z,85.54
2022-07-31T03:57:01.308Z,85.44
2022-07-31T03:58:01.298Z,86.15
2022-07-31T03:59:01.283Z,86.35
2022-07-31T04:00:01.281Z,86.04
2022-07-31T04:01:01.326Z,86.45
2022-07-31T04:02:01.257Z,86.55
2022-07-31T04:03:01.243Z,86.90
2022-07-31T04:04:01.242Z,85.74
2022-07-31T04:05:01.217Z,85.64
2022-07-31T04:06:01.224Z,86.59
2022-07-31T04:07:01.252Z,86.75
2022-07-31T04:08:01.186Z,86.39
2022-07-31T04:09:01.174Z,85.48
2022-07-31T04:10:02.168Z,85.48
2022-07-31T04:11:01.169Z,85.48
2022-07-31T04:12:01.699Z,84.97
2022-07-31T04:13:01.164Z,84.87
2022-07-31T04:14:01.123Z,84.37
2022-07-31T04:15:01.105Z,84.83
2022-07-31T04:16:01.105Z,84.57
2022-07-31T04:17:01.086Z,85.14
2022-07-31T04:18:01.072Z,85.28
2022-07-31T04:19:01.104Z,84.97
2022-07-31T04:20:01.057Z,84.83
2022-07-31T04:21:01.060Z,84.93
2022-07-31T04:22:01.303Z,85.03
2022-07-31T04:23:01.029Z,85.14
2022-07-31T04:24:01.000Z,85.44
2022-07-31T04:25:00.989Z,85.44
2022-07-31T04:26:01.063Z,85.44
2022-07-31T04:27:00.975Z,85.44
2022-07-31T04:28:00.964Z,85.84
2022-07-31T04:29:00.952Z,85.44
2022-07-31T04:30:00.929Z,85.54
2022-07-31T04:31:00.935Z,85.54
2022-07-31T04:32:01.140Z,84.63
2022-07-31T04:33:00.988Z,84.23
2022-07-31T04:34:00.890Z,84.23
2022-07-31T04:35:00.874Z,84.83
2022-07-31T04:36:00.887Z,84.93
2022-07-31T04:37:00.856Z,85.03
2022-07-31T04:38:00.847Z,85.03
2022-07-31T04:39:00.872Z,84.89
2022-07-31T04:40:00.827Z,85.24
2022-07-31T04:41:00.821Z,84.83
2022-07-31T04:42:01.270Z,85.19
2022-07-31T04:43:00.781Z,85.10
2022-07-31T04:44:00.775Z,86.41
2022-07-31T04:45:00.781Z,86.25
2022-07-31T04:46:00.770Z,86.10
2022-07-31T04:47:00.738Z,86.00
2022-07-31T04:48:00.728Z,86.30
2022-07-31T04:49:00.787Z,86.51
2022-07-31T04:50:00.702Z,86.61
2022-07-31T04:51:00.758Z,86.61
2022-07-31T04:52:00.991Z,86.65
2022-07-31T04:53:00.670Z,86.04
2022-07-31T04:54:00.656Z,86.10
2022-07-31T04:55:00.646Z,86.30
2022-07-31T04:56:00.650Z,86.41
2022-07-31T04:57:00.654Z,85.40
2022-07-31T04:58:00.636Z,85.40
2022-07-31T04:59:00.600Z,85.40
2022-07-31T05:00:01.448Z,85.30
2022-07-31T05:01:00.599Z,85.80
2022-07-31T05:02:00.748Z,85.10
2022-07-31T05:03:00.554Z,84.99
2022-07-31T05:04:00.599Z,84.99
2022-07-31T05:05:00.554Z,85.05
2022-07-31T05:06:00.544Z,84.45
2022-07-31T05:07:00.515Z,85.16
2022-07-31T05:08:00.498Z,85.86
2022-07-31T05:09:03.275Z,86.27
2022-07-31T05:10:01.550Z,86.47
2022-07-31T05:11:00.483Z,86.27
2022-07-31T05:12:00.565Z,86.13
2022-07-31T05:13:00.447Z,85.66
2022-07-31T05:14:00.422Z,84.85
2022-07-31T05:15:00.428Z,85.25
2022-07-31T05:16:00.491Z,84.81
2022-07-31T05:17:00.393Z,85.46
2022-07-31T05:18:00.384Z,86.02
2022-07-31T05:19:00.368Z,86.33
2022-07-31T05:20:00.366Z,86.02
2022-07-31T05:21:00.359Z,86.33
2022-07-31T05:22:02.653Z,86.13
2022-07-31T05:23:00.322Z,86.73
2022-07-31T05:24:00.322Z,86.58
2022-07-31T05:25:00.298Z,85.17
2022-07-31T05:26:00.301Z,85.62
2022-07-31T05:27:00.276Z,84.97
2022-07-31T05:28:00.311Z,84.77
2022-07-31T05:29:00.252Z,84.57
2022-07-31T05:30:00.250Z,84.27
2022-07-31T05:31:00.248Z,83.97
2022-07-31T05:32:01.133Z,83.46
2022-07-31T05:33:00.206Z,83.66
2022-07-31T05:34:00.219Z,83.36
2022-07-31T05:35:00.192Z,83.22
2022-07-31T05:36:00.189Z,83.32
2022-07-31T05:37:00.161Z,83.42
2022-07-31T05:38:00.151Z,83.42
2022-07-31T05:39:00.145Z,84.13
2022-07-31T05:40:00.157Z,84.23
2022-07-31T05:41:00.133Z,84.03
2022-07-31T05:42:00.119Z,83.39
2022-07-31T05:43:00.101Z,82.98
2022-07-31T05:44:00.084Z,83.39
2022-07-31T05:45:00.080Z,83.08
2022-07-31T05:46:00.130Z,82.98
2022-07-31T05:47:00.050Z,82.78
2022-07-31T05:48:00.042Z,83.59
2022-07-31T05:49:00.078Z,83.48
2022-07-31T05:50:00.020Z,83.69
2022-07-31T05:51:03.595Z,82.38
2022-07-31T05:52:01.342Z,82.58
2022-07-31T05:52:59.991Z,81.47
2022-07-31T05:53:59.973Z,81.07
2022-07-31T05:54:59.978Z,78.41
2022-07-31T05:55:59.952Z,78.05
2022-07-31T05:56:59.954Z,77.50
2022-07-31T05:57:59.935Z,77.61
2022-07-31T05:58:59.966Z,77.31
2022-07-31T05:59:59.913Z,78.41
2022-07-31T06:00:59.901Z,78.21
2022-07-31T06:02:00.003Z,77.87
2022-07-31T06:02:59.876Z,78.58
2022-07-31T06:03:59.859Z,78.74
2022-07-31T06:04:59.895Z,78.27
2022-07-31T06:05:59.850Z,78.27
2022-07-31T06:06:59.847Z,78.44
2022-07-31T06:07:59.821Z,78.54
2022-07-31T06:09:04.443Z,78.94
2022-07-31T06:10:00.796Z,79.24
2022-07-31T06:10:59.830Z,79.21
2022-07-31T06:12:00.122Z,79.64
2022-07-31T06:12:59.766Z,79.14
2022-07-31T06:13:59.751Z,79.00
2022-07-31T06:14:59.733Z,79.30
2022-07-31T06:15:59.729Z,79.00
2022-07-31T06:16:59.778Z,79.10
2022-07-31T06:17:59.711Z,79.21
2022-07-31T06:18:59.692Z,78.10
2022-07-31T06:19:59.683Z,76.69
2022-07-31T06:20:59.669Z,76.49
2022-07-31T06:21:59.676Z,76.49
2022-07-31T06:22:59.687Z,76.29
2022-07-31T06:23:59.644Z,76.45
2022-07-31T06:24:59.650Z,76.45
2022-07-31T06:25:59.623Z,76.25
2022-07-31T06:26:59.672Z,76.76
2022-07-31T06:28:00.049Z,76.96
2022-07-31T06:28:59.624Z,77.36
2022-07-31T06:29:59.571Z,76.96
2022-07-31T06:30:59.563Z,76.32
2022-07-31T06:31:59.612Z,76.21
2022-07-31T06:32:59.530Z,77.06
2022-07-31T06:34:00.525Z,76.92
2022-07-31T06:34:59.563Z,76.82
2022-07-31T06:35:59.516Z,75.92
2022-07-31T06:36:59.501Z,74.51
2022-07-31T06:37:59.477Z,74.21
2022-07-31T06:38:59.505Z,74.18
2022-07-31T06:39:59.459Z,74.98
2022-07-31T06:40:59.443Z,75.88
2022-07-31T06:41:59.446Z,76.18
2022-07-31T06:43:01.705Z,76.28
2022-07-31T06:44:00.436Z,75.95
2022-07-31T06:44:59.404Z,75.95
2022-07-31T06:45:59.384Z,76.54
2022-07-31T06:46:59.380Z,76.85
2022-07-31T06:47:59.374Z,76.95
2022-07-31T06:48:59.429Z,77.35
2022-07-31T06:49:59.397Z,76.95
2022-07-31T06:51:27.910Z,76.51
2022-07-31T06:52:00.509Z,76.25
2022-07-31T06:52:59.303Z,76.34
2022-07-31T06:53:59.289Z,74.44
2022-07-31T06:54:59.281Z,73.70
2022-07-31T06:55:59.278Z,74.01
2022-07-31T06:56:59.256Z,73.40
2022-07-31T06:57:59.260Z,73.30
2022-07-31T06:58:59.238Z,72.50
2022-07-31T06:59:59.214Z,72.50
2022-07-31T07:00:59.282Z,72.60
2022-07-31T07:01:59.223Z,72.66
2022-07-31T07:02:59.196Z,73.77
2022-07-31T07:03:59.182Z,73.57
2022-07-31T07:05:05.655Z,73.67
2022-07-31T07:06:00.149Z,72.77
2022-07-31T07:06:59.135Z,72.73
2022-07-31T07:07:59.154Z,72.77
2022-07-31T07:08:59.120Z,72.13
2022-07-31T07:09:59.141Z,71.73
2022-07-31T07:10:59.094Z,71.73
2022-07-31T07:11:59.085Z,72.03
2022-07-31T07:12:59.084Z,71.53
2022-07-31T07:13:59.064Z,71.39
2022-07-31T07:14:59.053Z,71.63
2022-07-31T07:15:59.086Z,70.09
2022-07-31T07:16:59.017Z,70.69
2022-07-31T07:17:59.033Z,70.79
2022-07-31T07:18:59.007Z,71.00
2022-07-31T07:19:59.000Z,71.39
2022-07-31T07:20:58.994Z,71.30
2022-07-31T07:21:59.028Z,71.59
2022-07-31T07:22:58.993Z,71.59
2022-07-31T07:23:58.951Z,71.46
2022-07-31T07:24:58.938Z,71.56
2022-07-31T07:25:58.932Z,71.06
2022-07-31T07:26:58.912Z,71.26
2022-07-31T07:27:58.950Z,70.66
2022-07-31T07:28:58.900Z,70.86
2022-07-31T07:29:58.886Z,71.42
2022-07-31T07:30:58.885Z,71.42
2022-07-31T07:31:58.857Z,71.42
2022-07-31T07:32:58.873Z,71.23
2022-07-31T07:33:58.847Z,71.12
2022-07-31T07:34:59.480Z,71.03
2022-07-31T07:35:58.813Z,70.99
2022-07-31T07:36:58.803Z,70.99
2022-07-31T07:37:58.810Z,70.69
2022-07-31T07:38:58.780Z,70.59
2022-07-31T07:40:03.712Z,70.59
2022-07-31T07:40:59.799Z,69.79
2022-07-31T07:41:58.744Z,68.79
2022-07-31T07:43:02.831Z,68.76
2022-07-31T07:43:58.731Z,68.86
2022-07-31T07:44:58.710Z,68.66
2022-07-31T07:45:58.706Z,69.36
2022-07-31T07:46:58.696Z,69.26
2022-07-31T07:48:05.735Z,69.76
2022-07-31T07:48:59.742Z,69.23
2022-07-31T07:49:58.657Z,68.82
2022-07-31T07:50:58.654Z,68.52
2022-07-31T07:52:00.288Z,68.23
2022-07-31T07:52:58.670Z,67.72
2022-07-31T07:53:58.612Z,67.03
2022-07-31T07:54:58.605Z,67.40
2022-07-31T07:55:58.591Z,68.29
2022-07-31T07:56:58.578Z,67.66
2022-07-31T07:57:58.580Z,67.16
2022-07-31T07:58:58.557Z,65.37
2022-07-31T07:59:58.582Z,64.27
2022-07-31T08:00:58.670Z,64.24
2022-07-31T08:01:58.535Z,64.04
2022-07-31T08:03:02.804Z,63.07
2022-07-31T08:03:59.494Z,63.07
2022-07-31T08:04:58.486Z,63.44
2022-07-31T08:05:58.521Z,63.54
2022-07-31T08:06:58.467Z,63.44
2022-07-31T08:07:58.463Z,63.81
2022-07-31T08:08:58.446Z,63.81
2022-07-31T08:09:58.422Z,63.91
2022-07-31T08:10:58.412Z,64.11
2022-07-31T08:11:58.459Z,63.58
2022-07-31T08:12:58.410Z,62.78
2022-07-31T08:13:58.399Z,61.69
2022-07-31T08:14:58.372Z,60.69
2022-07-31T08:15:58.373Z,60.69
2022-07-31T08:16:58.356Z,61.06
2022-07-31T08:17:58.403Z,60.73
2022-07-31T08:18:58.329Z,60.63
2022-07-31T08:19:58.315Z,59.41
2022-07-31T08:20:58.299Z,58.58
2022-07-31T08:21:58.292Z,58.56
2022-07-31T08:22:58.302Z,57.96
2022-07-31T08:23:58.265Z,56.64
2022-07-31T08:24:58.341Z,56.71
2022-07-31T08:25:58.248Z,56.88
2022-07-31T08:26:58.238Z,55.83
2022-07-31T08:27:58.239Z,54.60
2022-07-31T08:28:58.216Z,54.17
2022-07-31T08:29:58.196Z,52.66
2022-07-31T08:30:58.241Z,51.72
2022-07-31T08:31:58.175Z,51.70
2022-07-31T08:32:58.194Z,50.36
2022-07-31T08:33:58.151Z,49.65
2022-07-31T08:34:58.163Z,48.22
2022-07-31T08:35:58.140Z,49.18
2022-07-31T08:36:58.192Z,48.79
2022-07-31T08:38:03.867Z,47.97
2022-07-31T08:38:59.101Z,47.26
2022-07-31T08:39:58.096Z,46.18
2022-07-31T08:40:58.074Z,46.75
2022-07-31T08:41:58.069Z,45.74
2022-07-31T08:42:58.125Z,46.43
2022-07-31T08:44:01.750Z,46.01
2022-07-31T08:44:59.038Z,45.42
2022-07-31T08:45:58.023Z,45.20
2022-07-31T08:46:58.008Z,44.98
2022-07-31T08:47:58.014Z,44.98
2022-07-31T08:48:58.118Z,43.29
2022-07-31T08:49:57.986Z,44.18
2022-07-31T08:50:57.968Z,43.66
2022-07-31T08:51:58.025Z,43.94
2022-07-31T08:52:57.960Z,43.45
2022-07-31T08:53:57.941Z,42.35
2022-07-31T08:54:57.925Z,42.65
2022-07-31T08:55:58.080Z,41.66
2022-07-31T08:56:57.899Z,41.56
2022-07-31T08:57:57.994Z,41.08
2022-07-31T08:58:57.884Z,42.45
2022-07-31T08:59:57.877Z,43.23
2022-07-31T09:00:57.932Z,43.90
2022-07-31T09:01:57.838Z,41.64
2022-07-31T09:02:57.851Z,42.43
2022-07-31T09:03:57.899Z,41.62
2022-07-31T09:04:57.812Z,41.13
2022-07-31T09:05:57.799Z,41.33
2022-07-31T09:06:57.789Z,41.60
2022-07-31T09:07:57.795Z,41.31
2022-07-31T09:08:57.765Z,40.92
2022-07-31T09:09:57.762Z,40.43
2022-07-31T09:10:57.770Z,42.27
2022-07-31T09:11:57.734Z,41.36
2022-07-31T09:12:57.740Z,41.76
2022-07-31T09:14:01.446Z,41.64
2022-07-31T09:14:58.713Z,41.33
2022-07-31T09:15:57.686Z,40.06
2022-07-31T09:16:57.711Z,41.80
2022-07-31T09:17:57.688Z,39.47
2022-07-31T09:18:57.659Z,41.03
2022-07-31T09:19:57.645Z,42.69
2022-07-31T09:20:57.636Z,39.84
2022-07-31T09:21:57.630Z,40.23
2022-07-31T09:22:57.633Z,39.82
2022-07-31T09:23:57.678Z,39.12
2022-07-31T09:24:57.608Z,39.12
2022-07-31T09:25:57.584Z,37.93
2022-07-31T09:26:57.576Z,39.28
2022-07-31T09:27:57.578Z,40.62
2022-07-31T09:28:57.562Z,38.18
2022-07-31T09:29:57.540Z,39.04
2022-07-31T09:30:57.526Z,38.73
2022-07-31T09:31:57.625Z,37.08
2022-07-31T09:32:57.525Z,36.96
2022-07-31T09:33:57.509Z,36.36
2022-07-31T09:34:57.513Z,37.82
2022-07-31T09:35:57.478Z,35.86
2022-07-31T09:36:57.481Z,37.41
2022-07-31T09:37:57.486Z,34.28
2022-07-31T09:38:57.479Z,36.02
2022-07-31T09:39:57.477Z,35.33
2022-07-31T09:40:58.018Z,37.66
2022-07-31T09:42:01.902Z,37.45
2022-07-31T09:42:58.417Z,36.00
2022-07-31T09:43:57.396Z,35.49
2022-07-31T09:44:57.385Z,33.75
2022-07-31T09:45:57.374Z,34.33
2022-07-31T09:46:57.382Z,37.73
2022-07-31T09:47:57.384Z,34.43
2022-07-31T09:49:00.105Z,34.43
2022-07-31T09:49:57.344Z,37.43
2022-07-31T09:50:57.338Z,35.21
2022-07-31T09:51:57.342Z,34.89
2022-07-31T09:52:57.321Z,35.67
2022-07-31T09:53:57.296Z,32.57
2022-07-31T09:54:57.291Z,34.51
2022-07-31T09:55:57.277Z,34.51
2022-07-31T09:56:57.266Z,33.83
2022-07-31T09:57:57.286Z,32.67
2022-07-31T09:58:57.263Z,34.70
2022-07-31T09:59:57.237Z,34.12
2022-07-31T10:00:57.322Z,33.64
2022-07-31T10:01:57.219Z,32.65
2022-07-31T10:02:57.250Z,32.84
2022-07-31T10:03:57.238Z,33.83
2022-07-31T10:04:57.195Z,35.77
2022-07-31T10:05:57.185Z,35.94
2022-07-31T10:06:57.174Z,35.64
2022-07-31T10:07:57.183Z,33.51
2022-07-31T10:08:57.151Z,36.02
2022-07-31T10:09:57.194Z,37.17
2022-07-31T10:10:57.131Z,35.91
2022-07-31T10:11:57.130Z,34.84
2022-07-31T10:12:57.141Z,34.44
2022-07-31T10:13:57.114Z,33.67
2022-07-31T10:14:57.095Z,32.60
2022-07-31T10:15:57.113Z,31.71
2022-07-31T10:16:57.078Z,33.84
2022-07-31T10:17:57.100Z,32.29
2022-07-31T10:18:57.052Z,34.81
2022-07-31T10:19:57.055Z,33.94
2022-07-31T10:20:57.045Z,34.81
2022-07-31T10:21:57.058Z,33.94
2022-07-31T10:22:57.049Z,32.79
2022-07-31T10:23:57.009Z,33.49
2022-07-31T10:24:57.010Z,34.36
2022-07-31T10:25:56.986Z,33.12
2022-07-31T10:27:00.769Z,33.51
2022-07-31T10:27:57.006Z,32.46
2022-07-31T10:28:56.977Z,35.94
2022-07-31T10:29:56.955Z,38.95
2022-07-31T10:30:56.953Z,34.97
2022-07-31T10:31:56.934Z,36.06
2022-07-31T10:32:56.978Z,34.41
2022-07-31T10:33:56.910Z,34.22
2022-07-31T10:34:56.916Z,35.19
2022-07-31T10:35:56.894Z,34.12
2022-07-31T10:36:56.875Z,35.98
2022-07-31T10:37:56.893Z,35.49
2022-07-31T10:38:56.859Z,37.55
2022-07-31T10:39:56.852Z,35.80
2022-07-31T10:40:56.861Z,36.97
2022-07-31T10:41:56.834Z,37.96
2022-07-31T10:42:56.952Z,35.25
2022-07-31T10:43:56.815Z,34.50
2022-07-31T10:44:56.801Z,41.13
2022-07-31T10:45:56.793Z,37.45
2022-07-31T10:46:56.918Z,36.69
2022-07-31T10:47:56.786Z,37.58
2022-07-31T10:48:56.818Z,36.80
2022-07-31T10:49:56.753Z,40.16
2022-07-31T10:50:56.737Z,37.43
2022-07-31T10:51:56.797Z,42.00
2022-07-31T10:53:00.583Z,38.61
2022-07-31T10:53:56.702Z,39.90
2022-07-31T10:54:56.698Z,38.55
2022-07-31T10:55:56.723Z,41.02
2022-07-31T10:56:56.681Z,41.11
2022-07-31T10:57:57.736Z,42.29
2022-07-31T10:58:56.709Z,42.69
2022-07-31T10:59:56.647Z,41.42
2022-07-31T11:00:56.644Z,42.09
2022-07-31T11:01:56.734Z,45.23
2022-07-31T11:02:56.634Z,42.03
2022-07-31T11:03:56.609Z,40.39
2022-07-31T11:04:59.143Z,41.39
2022-07-31T11:06:01.651Z,45.62
2022-07-31T11:06:57.566Z,43.76
2022-07-31T11:07:56.671Z,45.25
2022-07-31T11:08:56.617Z,43.88
2022-07-31T11:09:56.549Z,43.68
2022-07-31T11:10:56.528Z,43.12
2022-07-31T11:11:56.524Z,47.89
2022-07-31T11:12:56.530Z,42.11
2022-07-31T11:13:56.562Z,44.27
2022-07-31T11:14:56.488Z,42.91
2022-07-31T11:15:56.479Z,46.15
2022-07-31T11:16:56.543Z,44.27
2022-07-31T11:18:22.196Z,42.99
2022-07-31T11:18:57.438Z,45.15
2022-07-31T11:19:56.440Z,43.70
2022-07-31T11:20:56.474Z,45.56
2022-07-31T11:21:56.418Z,44.41
2022-07-31T11:22:56.424Z,45.09
2022-07-31T11:24:03.411Z,44.70
2022-07-31T11:24:57.384Z,45.00
2022-07-31T11:25:56.477Z,45.00
2022-07-31T11:26:56.363Z,46.95
2022-07-31T11:27:56.365Z,50.20
2022-07-31T11:28:56.334Z,45.39
2022-07-31T11:30:00.935Z,45.39
2022-07-31T11:30:57.312Z,42.86
2022-07-31T11:31:56.321Z,45.21
2022-07-31T11:32:56.308Z,43.65
2022-07-31T11:33:56.283Z,47.27
2022-07-31T11:34:56.274Z,47.47
2022-07-31T11:35:56.256Z,48.65
2022-07-31T11:36:56.250Z,44.35
2022-07-31T11:37:58.248Z,49.19
2022-07-31T11:38:56.221Z,44.37
2022-07-31T11:39:56.214Z,43.39
2022-07-31T11:40:56.202Z,49.08
2022-07-31T11:41:56.191Z,45.36
2022-07-31T11:43:23.507Z,44.96
2022-07-31T11:43:57.178Z,45.45
2022-07-31T11:44:56.158Z,47.64
2022-07-31T11:45:56.160Z,47.27
2022-07-31T11:46:56.196Z,44.93
2022-07-31T11:48:12.395Z,45.32
2022-07-31T11:48:57.286Z,46.92
2022-07-31T11:49:56.145Z,45.05
2022-07-31T11:50:56.098Z,47.31
2022-07-31T11:51:56.074Z,49.18
2022-07-31T11:52:56.078Z,47.71
2022-07-31T11:53:57.041Z,48.79
2022-07-31T11:54:56.053Z,48.20
2022-07-31T11:55:56.043Z,45.35
2022-07-31T11:56:56.037Z,49.68
2022-07-31T11:57:56.035Z,46.03
2022-07-31T11:58:56.014Z,50.66
2022-07-31T11:59:56.048Z,47.73
2022-07-31T12:00:56.006Z,48.03
2022-07-31T12:01:55.975Z,50.19
2022-07-31T12:02:56.163Z,49.23
2022-07-31T12:03:55.963Z,49.23
2022-07-31T12:04:55.946Z,48.54
2022-07-31T12:05:55.971Z,50.02
2022-07-31T12:06:55.919Z,50.02
2022-07-31T12:07:55.926Z,52.38
2022-07-31T12:08:55.899Z,49.13
2022-07-31T12:10:02.057Z,50.31
2022-07-31T12:10:56.872Z,50.49
2022-07-31T12:11:55.870Z,50.78
2022-07-31T12:12:55.931Z,49.77
2022-07-31T12:13:55.844Z,49.77
2022-07-31T12:14:55.836Z,47.41
2022-07-31T12:15:55.817Z,49.77
2022-07-31T12:16:55.812Z,49.65
2022-07-31T12:17:55.819Z,48.20
2022-07-31T12:18:55.784Z,47.69
2022-07-31T12:19:58.052Z,45.15
2022-07-31T12:20:55.812Z,49.18
2022-07-31T12:21:55.749Z,50.93
2022-07-31T12:22:55.757Z,47.91
2022-07-31T12:23:55.737Z,47.61
2022-07-31T12:24:55.725Z,47.61
2022-07-31T12:25:55.707Z,49.01
2022-07-31T12:26:55.737Z,50.39
2022-07-31T12:27:55.722Z,49.73
2022-07-31T12:28:55.679Z,51.89
2022-07-31T12:29:55.659Z,51.59
2022-07-31T12:30:55.657Z,50.61
2022-07-31T12:31:55.640Z,52.09
2022-07-31T12:32:55.689Z,52.97
2022-07-31T12:33:55.616Z,53.47
2022-07-31T12:34:55.605Z,51.99
2022-07-31T12:35:57.183Z,49.43
2022-07-31T12:36:55.628Z,49.99
2022-07-31T12:37:55.711Z,50.29
2022-07-31T12:38:55.564Z,50.29
2022-07-31T12:40:00.622Z,51.05
2022-07-31T12:40:56.545Z,51.52
2022-07-31T12:41:55.611Z,50.44
2022-07-31T12:42:55.546Z,49.46
2022-07-31T12:43:55.512Z,49.75
2022-07-31T12:44:55.517Z,49.35
2022-07-31T12:45:55.482Z,47.88
2022-07-31T12:46:55.479Z,49.82
2022-07-31T12:47:55.584Z,45.50
2022-07-31T12:48:55.503Z,47.17
2022-07-31T12:49:55.446Z,48.86
2022-07-31T12:50:55.437Z,48.55
2022-07-31T12:51:55.417Z,47.58
2022-07-31T12:52:55.430Z,48.18